BER66 LXGB-EDDB
Flight info
| Callsign | BER66 |
|---|---|
| Flight time | N/A |
| Altitude | 34000 |
| Route | DCT PIMOS M985 MGA N869 BLN L27 YAKXU N871 TOPTU DCT NARAK DCT TIS DCT LUSAR DCT STR DCT LOHRE N746 TIKNI T279 TAMEB T278 KLF KLF1L |
| Aircraft | B738/M-SDE2E3FGHIRWXY/LB1 |
Departure
| Time | N/A |
|---|---|
| Airport | Gibraltar Airport (LXGB) |
Arrival
| Time | 2026-05-03 21:01 |
|---|---|
| Airport | Berlin Brandenburg Airport (EDDB) |
| Time | Latitude | Longitude | Altitude | Speed | Heading |
|---|---|---|---|---|---|
| 2026-05-03 20:15 | 49.00266 | 8.16447 | 34019 ft | 481 kts | 29° |
| 2026-05-03 20:15 | 49.05533 | 8.22812 | 34020 ft | 488 kts | 29° |
| 2026-05-03 20:16 | 49.10897 | 8.29314 | 34023 ft | 494 kts | 28° |
| 2026-05-03 20:16 | 49.16314 | 8.35894 | 34026 ft | 497 kts | 28° |
| 2026-05-03 20:17 | 49.21753 | 8.42523 | 34027 ft | 497 kts | 28° |
| 2026-05-03 20:17 | 49.27117 | 8.49081 | 34028 ft | 497 kts | 28° |
| 2026-05-03 20:18 | 49.32554 | 8.55747 | 34029 ft | 497 kts | 28° |
| 2026-05-03 20:18 | 49.37913 | 8.62337 | 34029 ft | 497 kts | 28° |
| 2026-05-03 20:19 | 49.43296 | 8.68974 | 34017 ft | 498 kts | 29° |
| 2026-05-03 20:19 | 49.48678 | 8.75631 | 34016 ft | 498 kts | 29° |
| 2026-05-03 20:20 | 49.54066 | 8.82314 | 34017 ft | 498 kts | 29° |
| 2026-05-03 20:20 | 49.59441 | 8.89001 | 34018 ft | 498 kts | 29° |
| 2026-05-03 20:21 | 49.64787 | 8.95676 | 34018 ft | 493 kts | 29° |
| 2026-05-03 20:21 | 49.70070 | 9.02288 | 34019 ft | 489 kts | 28° |
| 2026-05-03 20:22 | 49.75294 | 9.08844 | 34019 ft | 483 kts | 28° |
| 2026-05-03 20:22 | 49.80464 | 9.15345 | 34018 ft | 481 kts | 28° |
| 2026-05-03 20:23 | 49.85681 | 9.21926 | 34020 ft | 482 kts | 28° |
| 2026-05-03 20:23 | 49.90908 | 9.28543 | 34019 ft | 482 kts | 28° |
| 2026-05-03 20:24 | 49.96069 | 9.35093 | 34020 ft | 482 kts | 28° |
| 2026-05-03 20:24 | 50.01254 | 9.41693 | 34021 ft | 482 kts | 28° |
| 2026-05-03 20:25 | 50.06421 | 9.48277 | 34020 ft | 480 kts | 27° |
| 2026-05-03 20:25 | 50.11741 | 9.54294 | 34029 ft | 475 kts | 24° |
| 2026-05-03 20:26 | 50.17135 | 9.60351 | 34031 ft | 476 kts | 24° |
| 2026-05-03 20:26 | 50.22505 | 9.66399 | 34016 ft | 476 kts | 25° |
| 2026-05-03 20:27 | 50.27876 | 9.72467 | 34000 ft | 477 kts | 25° |
| 2026-05-03 20:27 | 50.33260 | 9.78566 | 33990 ft | 477 kts | 25° |
| 2026-05-03 20:28 | 50.38589 | 9.84621 | 33988 ft | 476 kts | 25° |
| 2026-05-03 20:28 | 50.41177 | 9.87933 | 33980 ft | 488 kts | 32° |
| 2026-05-03 20:28 | 50.43594 | 9.91715 | 33989 ft | 493 kts | 36° |
| 2026-05-03 20:29 | 50.48301 | 9.99488 | 33979 ft | 494 kts | 36° |
| 2026-05-03 20:29 | 50.53004 | 10.07318 | 33972 ft | 494 kts | 36° |
| 2026-05-03 20:30 | 50.57683 | 10.15133 | 33967 ft | 494 kts | 36° |
| 2026-05-03 20:30 | 50.62368 | 10.22981 | 33967 ft | 494 kts | 36° |
| 2026-05-03 20:31 | 50.66594 | 10.31685 | 33985 ft | 513 kts | 50° |
| 2026-05-03 20:31 | 50.70042 | 10.41556 | 33970 ft | 516 kts | 52° |
| 2026-05-03 20:32 | 50.73442 | 10.51477 | 33970 ft | 515 kts | 52° |
| 2026-05-03 20:32 | 50.76828 | 10.61387 | 33972 ft | 516 kts | 52° |
| 2026-05-03 20:33 | 50.80232 | 10.71389 | 33960 ft | 517 kts | 53° |
| 2026-05-03 20:33 | 50.83618 | 10.81382 | 33960 ft | 518 kts | 53° |
| 2026-05-03 20:34 | 50.86977 | 10.91355 | 33959 ft | 510 kts | 52° |
| 2026-05-03 20:34 | 50.90284 | 11.01190 | 33961 ft | 504 kts | 52° |
| 2026-05-03 20:35 | 50.93562 | 11.10965 | 33963 ft | 506 kts | 52° |
| 2026-05-03 20:35 | 50.96881 | 11.20907 | 33964 ft | 512 kts | 52° |
| 2026-05-03 20:36 | 51.00188 | 11.30860 | 33964 ft | 516 kts | 52° |
| 2026-05-03 20:36 | 51.03536 | 11.40972 | 33966 ft | 520 kts | 52° |
| 2026-05-03 20:37 | 51.06899 | 11.51177 | 33967 ft | 522 kts | 52° |
| 2026-05-03 20:37 | 51.10226 | 11.61323 | 33962 ft | 521 kts | 52° |
| 2026-05-03 20:38 | 51.13570 | 11.71561 | 33948 ft | 522 kts | 53° |
| 2026-05-03 20:38 | 51.16904 | 11.81828 | 33939 ft | 522 kts | 53° |
| 2026-05-03 20:39 | 51.20214 | 11.92078 | 33934 ft | 520 kts | 51° |
| 2026-05-03 20:39 | 51.22205 | 11.96693 | 33941 ft | 500 kts | 38° |
| 2026-05-03 20:39 | 51.24581 | 12.00674 | 33954 ft | 493 kts | 34° |
| 2026-05-03 20:40 | 51.29314 | 12.08543 | 33920 ft | 490 kts | 34° |
| 2026-05-03 20:40 | 51.31657 | 12.12487 | 33603 ft | 487 kts | 34° |
| 2026-05-03 20:40 | 51.33983 | 12.16400 | 32891 ft | 489 kts | 35° |
| 2026-05-03 20:40 | 51.36307 | 12.20323 | 32103 ft | 489 kts | 36° |
| 2026-05-03 20:41 | 51.38656 | 12.24296 | 31303 ft | 490 kts | 36° |
| 2026-05-03 20:41 | 51.40977 | 12.28231 | 30519 ft | 490 kts | 37° |
| 2026-05-03 20:41 | 51.43284 | 12.32152 | 29787 ft | 489 kts | 38° |
| 2026-05-03 20:41 | 51.45607 | 12.36103 | 29043 ft | 488 kts | 38° |
| 2026-05-03 20:42 | 51.47944 | 12.40086 | 28294 ft | 487 kts | 39° |
| 2026-05-03 20:42 | 51.50073 | 12.43718 | 27612 ft | 486 kts | 39° |
| 2026-05-03 20:42 | 51.51828 | 12.46719 | 27050 ft | 486 kts | 40° |
| 2026-05-03 20:42 | 51.54096 | 12.50600 | 26323 ft | 485 kts | 40° |
| 2026-05-03 20:43 | 51.56383 | 12.54521 | 25587 ft | 483 kts | 41° |
| 2026-05-03 20:43 | 51.58680 | 12.58462 | 24849 ft | 482 kts | 41° |
| 2026-05-03 20:43 | 51.60992 | 12.62439 | 24103 ft | 480 kts | 42° |
| 2026-05-03 20:43 | 51.63253 | 12.66332 | 23366 ft | 479 kts | 44° |
| 2026-05-03 20:44 | 51.65541 | 12.70279 | 22605 ft | 477 kts | 44° |
| 2026-05-03 20:44 | 51.67779 | 12.74147 | 21859 ft | 474 kts | 45° |
| 2026-05-03 20:44 | 51.69997 | 12.77987 | 21118 ft | 472 kts | 45° |
| 2026-05-03 20:44 | 51.72232 | 12.81862 | 20531 ft | 464 kts | 46° |
| 2026-05-03 20:45 | 51.74381 | 12.85596 | 20028 ft | 456 kts | 46° |
| 2026-05-03 20:45 | 51.76528 | 12.89339 | 19518 ft | 449 kts | 47° |
| 2026-05-03 20:45 | 51.78393 | 12.93351 | 19011 ft | 444 kts | 57° |
| 2026-05-03 20:45 | 51.80040 | 12.97510 | 18477 ft | 438 kts | 59° |
| 2026-05-03 20:46 | 51.81615 | 13.01671 | 17719 ft | 438 kts | 59° |
| 2026-05-03 20:46 | 51.83195 | 13.05881 | 16903 ft | 438 kts | 59° |
| 2026-05-03 20:46 | 51.84760 | 13.10058 | 16077 ft | 438 kts | 59° |
| 2026-05-03 20:46 | 51.86327 | 13.14245 | 15244 ft | 436 kts | 58° |
| 2026-05-03 20:47 | 51.87894 | 13.18439 | 14431 ft | 433 kts | 58° |
| 2026-05-03 20:47 | 51.89432 | 13.22563 | 13642 ft | 429 kts | 58° |
| 2026-05-03 20:47 | 51.90948 | 13.26626 | 12784 ft | 426 kts | 58° |
| 2026-05-03 20:47 | 51.92480 | 13.30748 | 11864 ft | 424 kts | 59° |
| 2026-05-03 20:48 | 51.93975 | 13.34782 | 10960 ft | 421 kts | 58° |
| 2026-05-03 20:48 | 51.95475 | 13.38832 | 10028 ft | 418 kts | 58° |
| 2026-05-03 20:48 | 51.96954 | 13.42829 | 9172 ft | 413 kts | 58° |
| 2026-05-03 20:48 | 51.98380 | 13.46688 | 9120 ft | 388 kts | 58° |
| 2026-05-03 20:49 | 51.99722 | 13.50329 | 9002 ft | 368 kts | 58° |
| 2026-05-03 20:49 | 52.00985 | 13.53765 | 8849 ft | 337 kts | 59° |
| 2026-05-03 20:49 | 52.02277 | 13.56691 | 8602 ft | 306 kts | 44° |
| 2026-05-03 20:49 | 52.03922 | 13.58643 | 8198 ft | 285 kts | 23° |
| 2026-05-03 20:50 | 52.05682 | 13.59864 | 7875 ft | 268 kts | 24° |
| 2026-05-03 20:50 | 52.07291 | 13.61232 | 7556 ft | 255 kts | 26° |
| 2026-05-03 20:50 | 52.08843 | 13.62625 | 7297 ft | 254 kts | 27° |
| 2026-05-03 20:50 | 52.10370 | 13.64011 | 7037 ft | 253 kts | 27° |
| 2026-05-03 20:51 | 52.11909 | 13.65413 | 6775 ft | 252 kts | 28° |
| 2026-05-03 20:51 | 52.13431 | 13.66802 | 6517 ft | 251 kts | 28° |
| 2026-05-03 20:51 | 52.14943 | 13.68182 | 6263 ft | 250 kts | 28° |
| 2026-05-03 20:51 | 52.16454 | 13.69563 | 6008 ft | 249 kts | 28° |
| 2026-05-03 20:52 | 52.17955 | 13.70936 | 5754 ft | 248 kts | 28° |
| 2026-05-03 20:52 | 52.19457 | 13.72310 | 5502 ft | 247 kts | 28° |
| 2026-05-03 20:52 | 52.20954 | 13.73681 | 5249 ft | 246 kts | 28° |
| 2026-05-03 20:52 | 52.22422 | 13.75027 | 5000 ft | 245 kts | 28° |
| 2026-05-03 20:53 | 52.23906 | 13.76388 | 4749 ft | 244 kts | 28° |
| 2026-05-03 20:53 | 52.25388 | 13.77748 | 4496 ft | 243 kts | 28° |
| 2026-05-03 20:53 | 52.26846 | 13.79087 | 4253 ft | 242 kts | 28° |
| 2026-05-03 20:53 | 52.28292 | 13.80417 | 4128 ft | 235 kts | 28° |
| 2026-05-03 20:54 | 52.29699 | 13.81713 | 3993 ft | 230 kts | 28° |
| 2026-05-03 20:54 | 52.32270 | 13.84079 | 3859 ft | 229 kts | 28° |
| 2026-05-03 20:54 | 52.33668 | 13.85368 | 3764 ft | 231 kts | 28° |
| 2026-05-03 20:55 | 52.35054 | 13.86647 | 3665 ft | 231 kts | 28° |
| 2026-05-03 20:55 | 52.36513 | 13.87693 | 3542 ft | 228 kts | 10° |
| 2026-05-03 20:55 | 52.38082 | 13.87804 | 3446 ft | 225 kts | 349° |
| 2026-05-03 20:55 | 52.39581 | 13.87170 | 3360 ft | 223 kts | 340° |
| 2026-05-03 20:56 | 52.40964 | 13.86099 | 3239 ft | 220 kts | 320° |
| 2026-05-03 20:56 | 52.41908 | 13.84176 | 3140 ft | 216 kts | 294° |
| 2026-05-03 20:56 | 52.42247 | 13.81850 | 3112 ft | 212 kts | 274° |
| 2026-05-03 20:56 | 52.42096 | 13.79425 | 3100 ft | 212 kts | 255° |
| 2026-05-03 20:57 | 52.41647 | 13.77145 | 3097 ft | 213 kts | 252° |
| 2026-05-03 20:57 | 52.41142 | 13.74837 | 3028 ft | 216 kts | 249° |
| 2026-05-03 20:57 | 52.40609 | 13.72560 | 2756 ft | 215 kts | 249° |
| 2026-05-03 20:57 | 52.40075 | 13.70279 | 2502 ft | 207 kts | 249° |
| 2026-05-03 20:58 | 52.39582 | 13.68174 | 2239 ft | 191 kts | 249° |
| 2026-05-03 20:58 | 52.39125 | 13.66231 | 1972 ft | 178 kts | 249° |
| 2026-05-03 20:58 | 52.38695 | 13.64403 | 1729 ft | 164 kts | 249° |
| 2026-05-03 20:58 | 52.38302 | 13.62731 | 1487 ft | 151 kts | 249° |
| 2026-05-03 20:59 | 52.37940 | 13.61194 | 1282 ft | 142 kts | 249° |
| 2026-05-03 20:59 | 52.37581 | 13.59675 | 1119 ft | 144 kts | 249° |
| 2026-05-03 20:59 | 52.37214 | 13.58118 | 942 ft | 148 kts | 249° |
| 2026-05-03 20:59 | 52.36846 | 13.56559 | 743 ft | 147 kts | 249° |
| 2026-05-03 21:00 | 52.36479 | 13.55009 | 549 ft | 146 kts | 249° |
| 2026-05-03 21:00 | 52.36359 | 13.54502 | 488 ft | 145 kts | 249° |
| 2026-05-03 21:00 | 52.35761 | 13.51968 | 190 ft | 143 kts | 249° |
| 2026-05-03 21:00 | 52.35424 | 13.50546 | 166 ft | 111 kts | 249° |
| 2026-05-03 21:01 | 52.35218 | 13.49676 | 165 ft | 55 kts | 249° |
| 2026-05-03 21:01 | 52.35088 | 13.49106 | 165 ft | 49 kts | 259° |
| 2026-05-03 21:01 | 52.35101 | 13.48646 | 165 ft | 22 kts | 280° |
| 2026-05-03 21:01 | 52.35130 | 13.48536 | 165 ft | 8 kts | 331° |
| 2026-05-03 21:02 | 52.35173 | 13.48544 | 165 ft | 5 kts | 36° |
| 2026-05-03 21:02 | 52.35199 | 13.48608 | 165 ft | 8 kts | 68° |
| 2026-05-03 21:02 | 52.35225 | 13.48715 | 165 ft | 12 kts | 68° |
| 2026-05-03 21:02 | 52.35257 | 13.48848 | 165 ft | 12 kts | 69° |
| 2026-05-03 21:03 | 52.35289 | 13.48986 | 165 ft | 13 kts | 69° |
| 2026-05-03 21:03 | 52.35325 | 13.49133 | 165 ft | 14 kts | 69° |
| 2026-05-03 21:03 | 52.35361 | 13.49288 | 165 ft | 14 kts | 70° |
| 2026-05-03 21:03 | 52.35399 | 13.49450 | 165 ft | 15 kts | 69° |
| 2026-05-03 21:04 | 52.35439 | 13.49619 | 165 ft | 16 kts | 70° |
| 2026-05-03 21:04 | 52.35482 | 13.49798 | 165 ft | 17 kts | 68° |
| 2026-05-03 21:04 | 52.35527 | 13.49982 | 165 ft | 17 kts | 68° |
| 2026-05-03 21:04 | 52.35572 | 13.50175 | 165 ft | 18 kts | 70° |
| 2026-05-03 21:05 | 52.35619 | 13.50375 | 165 ft | 19 kts | 69° |
| 2026-05-03 21:05 | 52.35663 | 13.50559 | 165 ft | 9 kts | 69° |
| 2026-05-03 21:05 | 52.35671 | 13.50591 | 165 ft | 0 kts | 70° |
| 2026-05-03 21:05 | 52.35676 | 13.50618 | 165 ft | 5 kts | 71° |
| 2026-05-03 21:06 | 52.35708 | 13.50685 | 165 ft | 10 kts | 20° |
| 2026-05-03 21:06 | 52.35780 | 13.50664 | 165 ft | 10 kts | 339° |
| 2026-05-03 21:06 | 52.35851 | 13.50619 | 165 ft | 11 kts | 338° |
| 2026-05-03 21:06 | 52.35924 | 13.50574 | 165 ft | 11 kts | 339° |
| 2026-05-03 21:07 | 52.35996 | 13.50527 | 165 ft | 10 kts | 338° |
| 2026-05-03 21:07 | 52.36047 | 13.50493 | 165 ft | 5 kts | 339° |
| 2026-05-03 21:07 | 52.36077 | 13.50474 | 165 ft | 3 kts | 339° |
| 2026-05-03 21:07 | 52.36093 | 13.50464 | 165 ft | 2 kts | 340° |
| 2026-05-03 21:08 | 52.36114 | 13.50452 | 165 ft | 3 kts | 340° |
| 2026-05-03 21:08 | 52.36140 | 13.50436 | 165 ft | 4 kts | 339° |
| 2026-05-03 21:08 | 52.36171 | 13.50416 | 165 ft | 5 kts | 339° |
| 2026-05-03 21:08 | 52.36192 | 13.50402 | 165 ft | 2 kts | 338° |
| 2026-05-03 21:09 | 52.36199 | 13.50398 | 165 ft | 0 kts | 338° |
| 2026-05-03 21:09 | 52.36206 | 13.50392 | 165 ft | 0 kts | 324° |
| 2026-05-03 21:09 | 52.36209 | 13.50381 | 165 ft | 1 kts | 289° |
| 2026-05-03 21:09 | 52.36210 | 13.50363 | 165 ft | 1 kts | 261° |
| 2026-05-03 21:10 | 52.36204 | 13.50339 | 165 ft | 2 kts | 244° |
| 2026-05-03 21:10 | 52.36195 | 13.50307 | 165 ft | 3 kts | 247° |
| 2026-05-03 21:10 | 52.36188 | 13.50279 | 165 ft | 2 kts | 248° |
| 2026-05-03 21:10 | 52.36183 | 13.50261 | 165 ft | 0 kts | 247° |